sensor_id;sensor_type;location;lat;lon;timestamp;temperature;humidity
19813;DHT22;10066;48.108;11.448;2023-01-01T00:00:15;9.90;99.90
19813;DHT22;10066;48.108;11.448;2023-01-01T00:02:47;9.90;99.90
19813;DHT22;10066;48.108;11.448;2023-01-01T00:05:14;9.90;99.90
19813;DHT22;10066;48.108;11.448;2023-01-01T00:07:41;10.00;99.90
19813;DHT22;10066;48.108;11.448;2023-01-01T00:10:09;10.00;99.90
19813;DHT22;10066;48.108;11.448;2023-01-01T00:12:54;10.10;99.90
19813;DHT22;10066;48.108;11.448;2023-01-01T00:15:22;10.20;99.90
19813;DHT22;10066;48.108;11.448;2023-01-01T00:17:51;10.20;99.90
19813;DHT22;10066;48.108;11.448;2023-01-01T00:20:18;10.30;99.90
19813;DHT22;10066;48.108;11.448;2023-01-01T00:22:45;10.30;99.90
19813;DHT22;10066;48.108;11.448;2023-01-01T00:25:12;10.40;99.90
19813;DHT22;10066;48.108;11.448;2023-01-01T00:27:40;10.40;99.90
19813;DHT22;10066;48.108;11.448;2023-01-01T00:30:08;10.50;99.90
19813;DHT22;10066;48.108;11.448;2023-01-01T00:32:35;10.50;99.90
19813;DHT22;10066;48.108;11.448;2023-01-01T00:35:04;10.50;99.90
19813;DHT22;10066;48.108;11.448;2023-01-01T00:37:32;10.40;99.90
19813;DHT22;10066;48.108;11.448;2023-01-01T00:39:59;10.30;99.90
19813;DHT22;10066;48.108;11.448;2023-01-01T00:42:25;10.20;99.90
19813;DHT22;10066;48.108;11.448;2023-01-01T00:44:52;10.10;99.90
19813;DHT22;10066;48.108;11.448;2023-01-01T00:47:19;10.10;99.90
19813;DHT22;10066;48.108;11.448;2023-01-01T00:49:47;10.00;99.90
19813;DHT22;10066;48.108;11.448;2023-01-01T00:52:15;9.80;99.90
19813;DHT22;10066;48.108;11.448;2023-01-01T00:54:42;9.80;99.90
19813;DHT22;10066;48.108;11.448;2023-01-01T00:57:12;9.70;99.90
19813;DHT22;10066;48.108;11.448;2023-01-01T00:59:39;9.60;99.90
19813;DHT22;10066;48.108;11.448;2023-01-01T01:02:06;9.50;99.90
19813;DHT22;10066;48.108;11.448;2023-01-01T01:04:33;9.40;99.90
19813;DHT22;10066;48.108;11.448;2023-01-01T01:07:00;9.30;99.90
19813;DHT22;10066;48.108;11.448;2023-01-01T01:09:29;9.20;99.90
19813;DHT22;10066;48.108;11.448;2023-01-01T01:11:56;9.10;99.90
19813;DHT22;10066;48.108;11.448;2023-01-01T01:14:22;9.00;99.90
19813;DHT22;10066;48.108;11.448;2023-01-01T01:16:49;9.00;99.90
19813;DHT22;10066;48.108;11.448;2023-01-01T01:19:16;8.90;99.90
19813;DHT22;10066;48.108;11.448;2023-01-01T01:21:44;8.80;99.90
19813;DHT22;10066;48.108;11.448;2023-01-01T01:24:12;8.80;99.90
19813;DHT22;10066;48.108;11.448;2023-01-01T01:26:41;8.70;99.90
19813;DHT22;10066;48.108;11.448;2023-01-01T01:29:08;8.70;99.90
19813;DHT22;10066;48.108;11.448;2023-01-01T01:31:34;8.60;99.90
19813;DHT22;10066;48.108;11.448;2023-01-01T01:34:01;8.60;99.90
19813;DHT22;10066;48.108;11.448;2023-01-01T01:36:28;8.50;99.90
19813;DHT22;10066;48.108;11.448;2023-01-01T01:38:56;8.50;99.90
19813;DHT22;10066;48.108;11.448;2023-01-01T01:41:24;8.40;99.90
19813;DHT22;10066;48.108;11.448;2023-01-01T01:43:55;8.30;99.90
19813;DHT22;10066;48.108;11.448;2023-01-01T01:46:31;8.30;99.90
19813;DHT22;10066;48.108;11.448;2023-01-01T01:49:02;8.20;99.90
19813;DHT22;10066;48.108;11.448;2023-01-01T01:51:32;8.10;99.90
19813;DHT22;10066;48.108;11.448;2023-01-01T01:54:03;8.10;99.90
19813;DHT22;10066;48.108;11.448;2023-01-01T01:56:41;8.10;99.90
19813;DHT22;10066;48.108;11.448;2023-01-01T01:59:11;8.00;99.90
19813;DHT22;10066;48.108;11.448;2023-01-01T02:01:40;8.00;99.90
19813;DHT22;10066;48.108;11.448;2023-01-01T02:04:07;8.00;99.90
19813;DHT22;10066;48.108;11.448;2023-01-01T02:06:39;7.90;99.90
19813;DHT22;10066;48.108;11.448;2023-01-01T02:09:07;8.00;99.90
19813;DHT22;10066;48.108;11.448;2023-01-01T02:14:03;7.90;99.90
19813;DHT22;10066;48.108;11.448;2023-01-01T02:16:36;7.90;99.90
19813;DHT22;10066;48.108;11.448;2023-01-01T02:19:11;7.90;99.90
19813;DHT22;10066;48.108;11.448;2023-01-01T02:21:51;7.90;99.90
19813;DHT22;10066;48.108;11.448;2023-01-01T02:27:16;8.00;99.90
19813;DHT22;10066;48.108;11.448;2023-01-01T02:29:53;8.10;99.90
19813;DHT22;10066;48.108;11.448;2023-01-01T02:32:24;8.10;99.90
19813;DHT22;10066;48.108;11.448;2023-01-01T02:34:56;8.20;99.90
19813;DHT22;10066;48.108;11.448;2023-01-01T02:37:25;8.20;99.90
19813;DHT22;10066;48.108;11.448;2023-01-01T02:39:56;8.20;99.90
19813;DHT22;10066;48.108;11.448;2023-01-01T02:42:27;8.30;99.90
19813;DHT22;10066;48.108;11.448;2023-01-01T02:44:57;8.30;99.90
19813;DHT22;10066;48.108;11.448;2023-01-01T02:47:25;8.30;99.90
19813;DHT22;10066;48.108;11.448;2023-01-01T02:49:59;8.40;99.90
19813;DHT22;10066;48.108;11.448;2023-01-01T02:52:41;8.40;99.90
19813;DHT22;10066;48.108;11.448;2023-01-01T02:55:19;8.50;99.90
19813;DHT22;10066;48.108;11.448;2023-01-01T02:57:52;8.50;99.90
19813;DHT22;10066;48.108;11.448;2023-01-01T03:00:23;8.60;99.90
19813;DHT22;10066;48.108;11.448;2023-01-01T03:03:12;8.70;99.90
19813;DHT22;10066;48.108;11.448;2023-01-01T03:05:47;8.80;99.90
19813;DHT22;10066;48.108;11.448;2023-01-01T03:08:42;8.90;99.90
19813;DHT22;10066;48.108;11.448;2023-01-01T03:11:14;9.00;99.90
19813;DHT22;10066;48.108;11.448;2023-01-01T03:13:48;9.00;99.90
19813;DHT22;10066;48.108;11.448;2023-01-01T03:16:22;9.10;99.90
19813;DHT22;10066;48.108;11.448;2023-01-01T03:18:55;9.10;99.90
19813;DHT22;10066;48.108;11.448;2023-01-01T03:21:41;9.20;99.90
19813;DHT22;10066;48.108;11.448;2023-01-01T03:24:12;9.20;99.90
19813;DHT22;10066;48.108;11.448;2023-01-01T03:26:41;9.20;99.90
19813;DHT22;10066;48.108;11.448;2023-01-01T03:29:11;9.20;99.90
19813;DHT22;10066;48.108;11.448;2023-01-01T03:31:42;9.10;99.90
19813;DHT22;10066;48.108;11.448;2023-01-01T03:34:18;9.10;99.90
19813;DHT22;10066;48.108;11.448;2023-01-01T03:36:47;9.10;99.90
19813;DHT22;10066;48.108;11.448;2023-01-01T03:39:18;9.10;99.90
19813;DHT22;10066;48.108;11.448;2023-01-01T03:41:51;9.00;99.90
19813;DHT22;10066;48.108;11.448;2023-01-01T03:44:23;9.00;99.90
19813;DHT22;10066;48.108;11.448;2023-01-01T03:46:53;8.90;99.90
19813;DHT22;10066;48.108;11.448;2023-01-01T03:49:20;8.90;99.90
19813;DHT22;10066;48.108;11.448;2023-01-01T03:52:06;8.80;99.90
19813;DHT22;10066;48.108;11.448;2023-01-01T03:54:44;8.80;99.90
19813;DHT22;10066;48.108;11.448;2023-01-01T03:57:18;8.70;99.90
19813;DHT22;10066;48.108;11.448;2023-01-01T03:59:51;8.70;99.90
19813;DHT22;10066;48.108;11.448;2023-01-01T04:02:21;8.60;99.90
19813;DHT22;10066;48.108;11.448;2023-01-01T04:04:51;8.60;99.90
19813;DHT22;10066;48.108;11.448;2023-01-01T04:07:19;8.60;99.90
19813;DHT22;10066;48.108;11.448;2023-01-01T04:09:50;8.50;99.90
19813;DHT22;10066;48.108;11.448;2023-01-01T04:12:18;8.50;99.90
19813;DHT22;10066;48.108;11.448;2023-01-01T04:14:45;8.50;99.90
19813;DHT22;10066;48.108;11.448;2023-01-01T04:17:12;8.50;99.90
19813;DHT22;10066;48.108;11.448;2023-01-01T04:19:41;8.50;99.90
19813;DHT22;10066;48.108;11.448;2023-01-01T04:22:07;8.40;99.90
19813;DHT22;10066;48.108;11.448;2023-01-01T04:24:34;8.40;99.90
19813;DHT22;10066;48.108;11.448;2023-01-01T04:27:01;8.30;99.90
19813;DHT22;10066;48.108;11.448;2023-01-01T04:29:28;8.30;99.90
19813;DHT22;10066;48.108;11.448;2023-01-01T04:31:55;8.20;99.90
19813;DHT22;10066;48.108;11.448;2023-01-01T04:34:22;8.20;99.90
19813;DHT22;10066;48.108;11.448;2023-01-01T04:36:50;8.10;99.90
19813;DHT22;10066;48.108;11.448;2023-01-01T04:39:20;8.10;99.90
19813;DHT22;10066;48.108;11.448;2023-01-01T04:41:50;8.10;99.90
19813;DHT22;10066;48.108;11.448;2023-01-01T04:44:18;8.00;99.90
19813;DHT22;10066;48.108;11.448;2023-01-01T04:46:44;7.90;99.90
19813;DHT22;10066;48.108;11.448;2023-01-01T04:49:11;7.90;99.90
19813;DHT22;10066;48.108;11.448;2023-01-01T04:51:38;7.90;99.90
19813;DHT22;10066;48.108;11.448;2023-01-01T04:54:07;7.80;99.90
19813;DHT22;10066;48.108;11.448;2023-01-01T04:56:34;7.80;99.90
19813;DHT22;10066;48.108;11.448;2023-01-01T04:59:02;7.80;99.90
19813;DHT22;10066;48.108;11.448;2023-01-01T05:01:29;7.80;99.90
19813;DHT22;10066;48.108;11.448;2023-01-01T05:03:59;7.70;99.90
19813;DHT22;10066;48.108;11.448;2023-01-01T05:06:26;7.70;99.90
19813;DHT22;10066;48.108;11.448;2023-01-01T05:08:55;7.60;99.90
19813;DHT22;10066;48.108;11.448;2023-01-01T05:11:26;7.60;99.90
19813;DHT22;10066;48.108;11.448;2023-01-01T05:13:54;7.50;99.90
19813;DHT22;10066;48.108;11.448;2023-01-01T05:16:23;7.50;99.90
19813;DHT22;10066;48.108;11.448;2023-01-01T05:18:51;7.40;99.90
19813;DHT22;10066;48.108;11.448;2023-01-01T05:21:20;7.40;99.90
19813;DHT22;10066;48.108;11.448;2023-01-01T05:23:48;7.40;99.90
19813;DHT22;10066;48.108;11.448;2023-01-01T05:26:17;7.40;99.90
19813;DHT22;10066;48.108;11.448;2023-01-01T05:28:47;7.40;99.90
19813;DHT22;10066;48.108;11.448;2023-01-01T05:31:15;7.40;99.90
19813;DHT22;10066;48.108;11.448;2023-01-01T05:33:42;7.40;99.90
19813;DHT22;10066;48.108;11.448;2023-01-01T05:36:13;7.30;99.90
19813;DHT22;10066;48.108;11.448;2023-01-01T05:38:41;7.40;99.90
19813;DHT22;10066;48.108;11.448;2023-01-01T05:41:09;7.40;99.90
19813;DHT22;10066;48.108;11.448;2023-01-01T05:43:37;7.40;99.90
19813;DHT22;10066;48.108;11.448;2023-01-01T05:46:08;7.40;99.90
19813;DHT22;10066;48.108;11.448;2023-01-01T05:48:35;7.40;99.90
19813;DHT22;10066;48.108;11.448;2023-01-01T05:51:04;7.40;99.90
19813;DHT22;10066;48.108;11.448;2023-01-01T05:53:31;7.40;99.90
19813;DHT22;10066;48.108;11.448;2023-01-01T05:55:59;7.40;99.90
19813;DHT22;10066;48.108;11.448;2023-01-01T05:58:27;7.40;99.90
19813;DHT22;10066;48.108;11.448;2023-01-01T06:00:55;7.40;99.90
19813;DHT22;10066;48.108;11.448;2023-01-01T06:03:23;7.40;99.90
19813;DHT22;10066;48.108;11.448;2023-01-01T06:05:50;7.30;99.90
19813;DHT22;10066;48.108;11.448;2023-01-01T06:08:17;7.30;99.90
19813;DHT22;10066;48.108;11.448;2023-01-01T06:10:44;7.30;99.90
19813;DHT22;10066;48.108;11.448;2023-01-01T06:13:12;7.30;99.90
19813;DHT22;10066;48.108;11.448;2023-01-01T06:15:39;7.30;99.90
19813;DHT22;10066;48.108;11.448;2023-01-01T06:18:06;7.20;99.90
19813;DHT22;10066;48.108;11.448;2023-01-01T06:20:34;7.20;99.90
19813;DHT22;10066;48.108;11.448;2023-01-01T06:23:01;7.20;99.90
19813;DHT22;10066;48.108;11.448;2023-01-01T06:25:28;7.10;99.90
19813;DHT22;10066;48.108;11.448;2023-01-01T06:27:55;7.10;99.90
19813;DHT22;10066;48.108;11.448;2023-01-01T06:30:22;7.00;99.90
19813;DHT22;10066;48.108;11.448;2023-01-01T06:32:49;7.00;99.90
19813;DHT22;10066;48.108;11.448;2023-01-01T06:35:16;7.00;99.90
19813;DHT22;10066;48.108;11.448;2023-01-01T06:37:47;7.00;99.90
19813;DHT22;10066;48.108;11.448;2023-01-01T06:40:14;7.00;99.90
19813;DHT22;10066;48.108;11.448;2023-01-01T06:42:41;6.90;99.90
19813;DHT22;10066;48.108;11.448;2023-01-01T06:45:09;6.90;99.90
19813;DHT22;10066;48.108;11.448;2023-01-01T06:47:36;6.90;99.90
19813;DHT22;10066;48.108;11.448;2023-01-01T06:50:04;7.00;99.90
19813;DHT22;10066;48.108;11.448;2023-01-01T06:52:31;7.00;99.90
19813;DHT22;10066;48.108;11.448;2023-01-01T06:54:59;7.00;99.90
19813;DHT22;10066;48.108;11.448;2023-01-01T06:57:26;7.00;99.90
19813;DHT22;10066;48.108;11.448;2023-01-01T06:59:53;7.00;99.90
19813;DHT22;10066;48.108;11.448;2023-01-01T07:02:20;7.00;99.90
19813;DHT22;10066;48.108;11.448;2023-01-01T07:04:47;7.00;99.90
19813;DHT22;10066;48.108;11.448;2023-01-01T07:07:14;7.00;99.90
19813;DHT22;10066;48.108;11.448;2023-01-01T07:09:41;7.10;99.90
19813;DHT22;10066;48.108;11.448;2023-01-01T07:12:10;7.20;99.90
19813;DHT22;10066;48.108;11.448;2023-01-01T07:14:37;7.20;99.90
19813;DHT22;10066;48.108;11.448;2023-01-01T07:17:03;7.10;99.90
19813;DHT22;10066;48.108;11.448;2023-01-01T07:19:30;7.10;99.90
19813;DHT22;10066;48.108;11.448;2023-01-01T07:21:57;7.10;99.90
19813;DHT22;10066;48.108;11.448;2023-01-01T07:24:24;7.10;99.90
19813;DHT22;10066;48.108;11.448;2023-01-01T07:26:51;7.20;99.90
19813;DHT22;10066;48.108;11.448;2023-01-01T07:29:19;7.20;99.90
19813;DHT22;10066;48.108;11.448;2023-01-01T07:31:46;7.20;99.90
19813;DHT22;10066;48.108;11.448;2023-01-01T07:34:15;7.20;99.90
19813;DHT22;10066;48.108;11.448;2023-01-01T07:36:43;7.20;99.90
19813;DHT22;10066;48.108;11.448;2023-01-01T07:39:10;7.20;99.90
19813;DHT22;10066;48.108;11.448;2023-01-01T07:41:37;7.20;99.90
19813;DHT22;10066;48.108;11.448;2023-01-01T07:44:04;7.20;99.90
19813;DHT22;10066;48.108;11.448;2023-01-01T07:46:34;7.20;99.90
19813;DHT22;10066;48.108;11.448;2023-01-01T07:49:01;7.20;99.90
19813;DHT22;10066;48.108;11.448;2023-01-01T07:51:28;7.30;99.90
19813;DHT22;10066;48.108;11.448;2023-01-01T07:53:55;7.30;99.90
19813;DHT22;10066;48.108;11.448;2023-01-01T07:56:22;7.30;99.90
19813;DHT22;10066;48.108;11.448;2023-01-01T07:58:49;7.40;99.90
19813;DHT22;10066;48.108;11.448;2023-01-01T08:01:16;7.40;99.90
19813;DHT22;10066;48.108;11.448;2023-01-01T08:03:49;7.50;99.90
19813;DHT22;10066;48.108;11.448;2023-01-01T08:06:17;7.60;99.90
19813;DHT22;10066;48.108;11.448;2023-01-01T08:08:44;7.60;99.90
19813;DHT22;10066;48.108;11.448;2023-01-01T08:11:11;7.70;99.90
19813;DHT22;10066;48.108;11.448;2023-01-01T08:13:38;7.80;99.90
19813;DHT22;10066;48.108;11.448;2023-01-01T08:16:06;7.90;99.90
19813;DHT22;10066;48.108;11.448;2023-01-01T08:18:33;7.90;99.90
19813;DHT22;10066;48.108;11.448;2023-01-01T08:21:02;8.00;99.90
19813;DHT22;10066;48.108;11.448;2023-01-01T08:23:29;8.20;99.90
19813;DHT22;10066;48.108;11.448;2023-01-01T08:25:58;8.40;99.90
19813;DHT22;10066;48.108;11.448;2023-01-01T08:28:25;8.40;99.90
19813;DHT22;10066;48.108;11.448;2023-01-01T08:30:52;8.60;99.90
19813;DHT22;10066;48.108;11.448;2023-01-01T08:33:19;8.70;99.90
19813;DHT22;10066;48.108;11.448;2023-01-01T08:35:48;8.80;99.90
19813;DHT22;10066;48.108;11.448;2023-01-01T08:38:16;9.00;99.90
19813;DHT22;10066;48.108;11.448;2023-01-01T08:40:43;9.20;99.90
19813;DHT22;10066;48.108;11.448;2023-01-01T08:43:10;9.30;99.90
19813;DHT22;10066;48.108;11.448;2023-01-01T08:45:37;9.60;99.90
19813;DHT22;10066;48.108;11.448;2023-01-01T08:48:04;10.10;99.90
19813;DHT22;10066;48.108;11.448;2023-01-01T08:50:31;9.70;99.90
19813;DHT22;10066;48.108;11.448;2023-01-01T08:52:58;9.90;99.90
19813;DHT22;10066;48.108;11.448;2023-01-01T08:57:55;10.10;99.90
19813;DHT22;10066;48.108;11.448;2023-01-01T09:00:22;10.20;99.90
19813;DHT22;10066;48.108;11.448;2023-01-01T09:02:50;10.40;99.90
19813;DHT22;10066;48.108;11.448;2023-01-01T09:05:17;10.50;99.90
19813;DHT22;10066;48.108;11.448;2023-01-01T09:07:44;10.70;99.90
19813;DHT22;10066;48.108;11.448;2023-01-01T09:10:11;10.80;99.90
19813;DHT22;10066;48.108;11.448;2023-01-01T09:12:39;10.90;99.90
19813;DHT22;10066;48.108;11.448;2023-01-01T09:15:13;11.00;99.90
19813;DHT22;10066;48.108;11.448;2023-01-01T09:17:40;11.20;99.90
19813;DHT22;10066;48.108;11.448;2023-01-01T09:20:08;11.20;99.90
19813;DHT22;10066;48.108;11.448;2023-01-01T09:22:35;11.30;99.90
19813;DHT22;10066;48.108;11.448;2023-01-01T09:25:02;11.40;99.90
19813;DHT22;10066;48.108;11.448;2023-01-01T09:27:29;11.50;99.90
19813;DHT22;10066;48.108;11.448;2023-01-01T09:29:57;11.60;99.90
19813;DHT22;10066;48.108;11.448;2023-01-01T09:32:24;11.70;99.90
19813;DHT22;10066;48.108;11.448;2023-01-01T09:34:52;11.80;99.90
19813;DHT22;10066;48.108;11.448;2023-01-01T09:37:18;11.90;99.90
19813;DHT22;10066;48.108;11.448;2023-01-01T09:39:47;12.00;99.90
19813;DHT22;10066;48.108;11.448;2023-01-01T09:42:24;12.10;99.90
19813;DHT22;10066;48.108;11.448;2023-01-01T09:47:48;12.20;99.90
19813;DHT22;10066;48.108;11.448;2023-01-01T09:52:51;12.50;99.90
19813;DHT22;10066;48.108;11.448;2023-01-01T09:55:28;12.50;99.90
19813;DHT22;10066;48.108;11.448;2023-01-01T09:57:56;12.70;99.90
19813;DHT22;10066;48.108;11.448;2023-01-01T10:00:23;12.80;99.90
19813;DHT22;10066;48.108;11.448;2023-01-01T10:03:09;12.90;99.90
19813;DHT22;10066;48.108;11.448;2023-01-01T10:05:46;13.00;99.90
19813;DHT22;10066;48.108;11.448;2023-01-01T10:08:22;13.20;99.90
19813;DHT22;10066;48.108;11.448;2023-01-01T10:10:58;13.30;99.90
19813;DHT22;10066;48.108;11.448;2023-01-01T10:13:33;13.50;99.90
19813;DHT22;10066;48.108;11.448;2023-01-01T10:16:08;13.60;99.90
19813;DHT22;10066;48.108;11.448;2023-01-01T10:18:40;13.70;99.90
19813;DHT22;10066;48.108;11.448;2023-01-01T10:21:12;13.90;99.90
19813;DHT22;10066;48.108;11.448;2023-01-01T10:23:42;14.00;99.90
19813;DHT22;10066;48.108;11.448;2023-01-01T10:26:15;14.20;99.90
19813;DHT22;10066;48.108;11.448;2023-01-01T10:28:48;14.30;99.90
19813;DHT22;10066;48.108;11.448;2023-01-01T10:33:47;14.40;99.90
19813;DHT22;10066;48.108;11.448;2023-01-01T10:36:16;14.50;99.90
19813;DHT22;10066;48.108;11.448;2023-01-01T10:38:45;14.60;99.90
19813;DHT22;10066;48.108;11.448;2023-01-01T10:41:13;14.70;99.90
19813;DHT22;10066;48.108;11.448;2023-01-01T10:43:43;14.80;99.90
19813;DHT22;10066;48.108;11.448;2023-01-01T10:46:12;14.90;99.90
19813;DHT22;10066;48.108;11.448;2023-01-01T10:49:06;14.90;99.90
19813;DHT22;10066;48.108;11.448;2023-01-01T10:51:37;15.00;99.90
19813;DHT22;10066;48.108;11.448;2023-01-01T10:54:29;15.10;99.90
19813;DHT22;10066;48.108;11.448;2023-01-01T10:56:58;15.20;99.90
19813;DHT22;10066;48.108;11.448;2023-01-01T10:59:34;15.30;99.90
19813;DHT22;10066;48.108;11.448;2023-01-01T11:02:16;15.30;99.90
19813;DHT22;10066;48.108;11.448;2023-01-01T11:04:45;15.30;99.90
19813;DHT22;10066;48.108;11.448;2023-01-01T11:07:19;15.40;99.90
19813;DHT22;10066;48.108;11.448;2023-01-01T11:09:48;15.40;99.90
19813;DHT22;10066;48.108;11.448;2023-01-01T11:12:19;15.50;99.90
19813;DHT22;10066;48.108;11.448;2023-01-01T11:14:49;15.60;99.90
19813;DHT22;10066;48.108;11.448;2023-01-01T11:17:20;15.60;99.90
19813;DHT22;10066;48.108;11.448;2023-01-01T11:19:50;15.60;99.90
19813;DHT22;10066;48.108;11.448;2023-01-01T11:22:36;15.70;99.90
19813;DHT22;10066;48.108;11.448;2023-01-01T11:25:17;15.80;99.90
19813;DHT22;10066;48.108;11.448;2023-01-01T11:27:44;15.80;99.90
19813;DHT22;10066;48.108;11.448;2023-01-01T11:30:23;15.80;99.90
19813;DHT22;10066;48.108;11.448;2023-01-01T11:32:52;15.90;99.90
19813;DHT22;10066;48.108;11.448;2023-01-01T11:35:23;15.90;99.90
19813;DHT22;10066;48.108;11.448;2023-01-01T11:37:52;16.00;99.90
19813;DHT22;10066;48.108;11.448;2023-01-01T11:40:21;16.00;99.90
19813;DHT22;10066;48.108;11.448;2023-01-01T11:42:50;16.00;99.90
19813;DHT22;10066;48.108;11.448;2023-01-01T11:45:20;16.10;99.90
19813;DHT22;10066;48.108;11.448;2023-01-01T11:47:51;16.10;99.90
19813;DHT22;10066;48.108;11.448;2023-01-01T11:50:25;16.10;99.90
19813;DHT22;10066;48.108;11.448;2023-01-01T11:52:55;16.10;99.90
19813;DHT22;10066;48.108;11.448;2023-01-01T11:55:34;16.10;99.90
19813;DHT22;10066;48.108;11.448;2023-01-01T11:58:10;16.10;99.90
19813;DHT22;10066;48.108;11.448;2023-01-01T12:00:40;16.10;99.90
19813;DHT22;10066;48.108;11.448;2023-01-01T12:03:16;16.10;99.90
19813;DHT22;10066;48.108;11.448;2023-01-01T12:05:51;16.10;99.90
19813;DHT22;10066;48.108;11.448;2023-01-01T12:08:30;16.10;99.90
19813;DHT22;10066;48.108;11.448;2023-01-01T12:11:05;16.20;99.90
19813;DHT22;10066;48.108;11.448;2023-01-01T12:13:43;16.20;99.90
19813;DHT22;10066;48.108;11.448;2023-01-01T12:16:14;16.30;99.90
19813;DHT22;10066;48.108;11.448;2023-01-01T12:18:45;16.30;99.90
19813;DHT22;10066;48.108;11.448;2023-01-01T12:21:19;16.30;99.90
19813;DHT22;10066;48.108;11.448;2023-01-01T12:23:49;16.40;99.90
19813;DHT22;10066;48.108;11.448;2023-01-01T12:26:21;16.40;99.90
19813;DHT22;10066;48.108;11.448;2023-01-01T12:32:02;16.50;99.90
19813;DHT22;10066;48.108;11.448;2023-01-01T12:34:33;16.50;99.90
19813;DHT22;10066;48.108;11.448;2023-01-01T12:37:13;16.50;99.90
19813;DHT22;10066;48.108;11.448;2023-01-01T12:42:59;16.50;99.90
19813;DHT22;10066;48.108;11.448;2023-01-01T12:45:45;16.50;99.90
19813;DHT22;10066;48.108;11.448;2023-01-01T12:48:32;16.50;99.90
19813;DHT22;10066;48.108;11.448;2023-01-01T12:51:12;16.50;99.90
19813;DHT22;10066;48.108;11.448;2023-01-01T12:53:48;16.60;99.90
19813;DHT22;10066;48.108;11.448;2023-01-01T12:56:23;16.50;99.90
19813;DHT22;10066;48.108;11.448;2023-01-01T12:58:55;16.60;99.90
19813;DHT22;10066;48.108;11.448;2023-01-01T13:01:25;16.60;99.90
19813;DHT22;10066;48.108;11.448;2023-01-01T13:03:55;16.60;99.90
19813;DHT22;10066;48.108;11.448;2023-01-01T13:06:27;16.60;99.90
19813;DHT22;10066;48.108;11.448;2023-01-01T13:09:04;16.60;99.90
19813;DHT22;10066;48.108;11.448;2023-01-01T13:11:33;16.60;99.80
19813;DHT22;10066;48.108;11.448;2023-01-01T13:14:00;16.60;99.90
19813;DHT22;10066;48.108;11.448;2023-01-01T13:16:36;16.60;99.90
19813;DHT22;10066;48.108;11.448;2023-01-01T13:19:03;16.50;99.70
19813;DHT22;10066;48.108;11.448;2023-01-01T13:21:31;16.50;99.90
19813;DHT22;10066;48.108;11.448;2023-01-01T13:24:18;16.50;99.90
19813;DHT22;10066;48.108;11.448;2023-01-01T13:26:46;16.50;99.50
19813;DHT22;10066;48.108;11.448;2023-01-01T13:29:34;16.50;99.90
19813;DHT22;10066;48.108;11.448;2023-01-01T13:32:08;16.40;99.60
19813;DHT22;10066;48.108;11.448;2023-01-01T13:34:58;16.40;99.80
19813;DHT22;10066;48.108;11.448;2023-01-01T13:37:39;16.40;99.00
19813;DHT22;10066;48.108;11.448;2023-01-01T13:40:45;16.40;99.90
19813;DHT22;10066;48.108;11.448;2023-01-01T13:43:24;16.30;99.40
19813;DHT22;10066;48.108;11.448;2023-01-01T13:45:52;16.30;99.90
19813;DHT22;10066;48.108;11.448;2023-01-01T13:48:51;16.30;99.90
19813;DHT22;10066;48.108;11.448;2023-01-01T13:57:42;16.10;99.70
19813;DHT22;10066;48.108;11.448;2023-01-01T14:00:17;16.10;99.50
19813;DHT22;10066;48.108;11.448;2023-01-01T14:02:47;16.00;99.50
19813;DHT22;10066;48.108;11.448;2023-01-01T14:05:28;16.00;99.90
19813;DHT22;10066;48.108;11.448;2023-01-01T14:07:59;16.00;99.60
19813;DHT22;10066;48.108;11.448;2023-01-01T14:10:28;16.00;99.80
19813;DHT22;10066;48.108;11.448;2023-01-01T14:13:13;16.00;99.60
19813;DHT22;10066;48.108;11.448;2023-01-01T14:15:50;16.00;99.20
19813;DHT22;10066;48.108;11.448;2023-01-01T14:18:19;15.90;99.70
19813;DHT22;10066;48.108;11.448;2023-01-01T14:20:50;15.90;99.70
19813;DHT22;10066;48.108;11.448;2023-01-01T14:23:22;15.90;99.50
19813;DHT22;10066;48.108;11.448;2023-01-01T14:25:51;15.90;99.70
19813;DHT22;10066;48.108;11.448;2023-01-01T14:28:23;15.90;99.70
19813;DHT22;10066;48.108;11.448;2023-01-01T14:30:52;15.80;99.90
19813;DHT22;10066;48.108;11.448;2023-01-01T14:33:24;15.80;99.90
19813;DHT22;10066;48.108;11.448;2023-01-01T14:35:52;15.70;99.90
19813;DHT22;10066;48.108;11.448;2023-01-01T14:38:24;15.70;99.90
19813;DHT22;10066;48.108;11.448;2023-01-01T14:41:07;15.60;99.90
19813;DHT22;10066;48.108;11.448;2023-01-01T14:43:39;15.50;99.90
19813;DHT22;10066;48.108;11.448;2023-01-01T14:46:07;15.40;99.90
19813;DHT22;10066;48.108;11.448;2023-01-01T14:48:42;15.30;99.90
19813;DHT22;10066;48.108;11.448;2023-01-01T14:51:12;15.20;99.90
19813;DHT22;10066;48.108;11.448;2023-01-01T14:53:40;15.10;99.90
19813;DHT22;10066;48.108;11.448;2023-01-01T14:56:08;15.00;99.90
19813;DHT22;10066;48.108;11.448;2023-01-01T14:58:40;14.90;99.90
19813;DHT22;10066;48.108;11.448;2023-01-01T15:01:14;14.80;99.90
19813;DHT22;10066;48.108;11.448;2023-01-01T15:03:54;14.70;99.90
19813;DHT22;10066;48.108;11.448;2023-01-01T15:06:22;14.60;99.90
19813;DHT22;10066;48.108;11.448;2023-01-01T15:08:50;14.50;99.90
19813;DHT22;10066;48.108;11.448;2023-01-01T15:11:17;14.40;99.90
19813;DHT22;10066;48.108;11.448;2023-01-01T15:13:54;14.40;99.90
19813;DHT22;10066;48.108;11.448;2023-01-01T15:16:21;14.30;99.90
19813;DHT22;10066;48.108;11.448;2023-01-01T15:18:49;14.10;99.90
19813;DHT22;10066;48.108;11.448;2023-01-01T15:21:24;14.10;99.90
19813;DHT22;10066;48.108;11.448;2023-01-01T15:24:00;14.00;99.90
19813;DHT22;10066;48.108;11.448;2023-01-01T15:26:29;13.90;99.90
19813;DHT22;10066;48.108;11.448;2023-01-01T15:28:58;13.80;99.90
19813;DHT22;10066;48.108;11.448;2023-01-01T15:31:37;13.60;99.90
19813;DHT22;10066;48.108;11.448;2023-01-01T15:34:05;13.50;99.90
19813;DHT22;10066;48.108;11.448;2023-01-01T15:36:39;13.40;99.90
19813;DHT22;10066;48.108;11.448;2023-01-01T15:39:08;13.30;99.90
19813;DHT22;10066;48.108;11.448;2023-01-01T15:41:42;13.20;99.90
19813;DHT22;10066;48.108;11.448;2023-01-01T15:44:24;13.10;99.90
19813;DHT22;10066;48.108;11.448;2023-01-01T15:46:51;12.90;99.90
19813;DHT22;10066;48.108;11.448;2023-01-01T15:49:23;12.80;99.90
19813;DHT22;10066;48.108;11.448;2023-01-01T15:51:51;12.70;99.90
19813;DHT22;10066;48.108;11.448;2023-01-01T15:54:19;12.60;99.90
19813;DHT22;10066;48.108;11.448;2023-01-01T15:56:45;12.50;99.90
19813;DHT22;10066;48.108;11.448;2023-01-01T15:59:24;12.40;99.90
19813;DHT22;10066;48.108;11.448;2023-01-01T16:01:51;12.30;99.90
19813;DHT22;10066;48.108;11.448;2023-01-01T16:04:27;12.30;99.90
19813;DHT22;10066;48.108;11.448;2023-01-01T16:06:56;12.20;99.90
19813;DHT22;10066;48.108;11.448;2023-01-01T16:09:25;12.10;99.90
19813;DHT22;10066;48.108;11.448;2023-01-01T16:11:53;12.00;99.90